createdAt,value
2022-08-30T00:02:50.594Z,73.53
2022-08-30T00:05:19.084Z,73.68
2022-08-30T00:07:47.276Z,73.86
2022-08-30T00:10:16.812Z,73.97
2022-08-30T00:12:45.000Z,74.08
2022-08-30T00:15:14.005Z,74.23
2022-08-30T00:17:43.607Z,74.40
2022-08-30T00:20:16.565Z,74.51
2022-08-30T00:22:44.994Z,74.46
2022-08-30T00:25:18.181Z,74.70
2022-08-30T00:27:46.540Z,74.82
2022-08-30T00:30:17.357Z,74.74
2022-08-30T00:32:45.788Z,74.74
2022-08-30T00:35:20.600Z,74.61
2022-08-30T00:37:50.911Z,74.62
2022-08-30T00:40:27.192Z,74.66
2022-08-30T00:43:13.932Z,74.51
2022-08-30T00:45:42.521Z,74.55
2022-08-30T00:48:10.709Z,74.82
2022-08-30T00:50:48.304Z,74.66
2022-08-30T00:53:23.584Z,74.68
2022-08-30T00:55:54.075Z,74.57
2022-08-30T00:58:32.273Z,74.55
2022-08-30T01:01:01.876Z,74.55
2022-08-30T01:03:31.181Z,74.51
2022-08-30T01:06:00.107Z,74.55
2022-08-30T01:08:28.945Z,74.34
2022-08-30T01:10:58.048Z,74.17
2022-08-30T01:13:28.206Z,74.18
2022-08-30T01:15:56.953Z,74.23
2022-08-30T01:18:25.768Z,74.01
2022-08-30T01:21:18.016Z,73.97
2022-08-30T01:23:50.343Z,73.95
2022-08-30T01:26:21.897Z,73.98
2022-08-30T01:28:55.964Z,74.00
2022-08-30T01:31:24.405Z,74.03
2022-08-30T01:33:52.669Z,73.86
2022-08-30T01:36:21.291Z,73.78
2022-08-30T01:38:57.159Z,73.82
2022-08-30T01:41:35.596Z,73.72
2022-08-30T01:44:08.960Z,73.70
2022-08-30T01:46:43.781Z,73.63
2022-08-30T01:49:16.193Z,73.86
2022-08-30T01:51:44.428Z,73.69
2022-08-30T01:54:12.749Z,73.75
2022-08-30T01:56:40.973Z,73.90
2022-08-30T01:59:09.316Z,73.82
2022-08-30T02:01:39.664Z,73.91
2022-08-30T02:04:11.487Z,73.98
2022-08-30T02:06:39.840Z,73.93
2022-08-30T02:09:08.195Z,74.12
2022-08-30T02:11:36.501Z,74.22
2022-08-30T02:14:06.393Z,74.21
2022-08-30T02:16:34.900Z,74.36
2022-08-30T02:19:03.464Z,74.36
2022-08-30T02:21:31.732Z,74.51
2022-08-30T02:23:59.906Z,74.44
2022-08-30T02:26:28.463Z,74.46
2022-08-30T02:28:59.001Z,74.97
2022-08-30T02:31:27.428Z,75.19
2022-08-30T02:33:55.859Z,75.35
2022-08-30T02:36:24.125Z,75.56
2022-08-30T02:38:52.829Z,75.51
2022-08-30T02:41:23.637Z,75.65
2022-08-30T02:43:52.559Z,75.72
2022-08-30T02:46:20.864Z,75.73
2022-08-30T02:48:49.122Z,75.86
2022-08-30T02:51:17.473Z,75.82
2022-08-30T02:53:46.093Z,75.90
2022-08-30T02:56:15.496Z,75.85
2022-08-30T02:58:45.054Z,76.08
2022-08-30T03:01:15.859Z,76.21
2022-08-30T03:03:45.896Z,75.98
2022-08-30T03:06:14.757Z,76.24
2022-08-30T03:08:43.049Z,76.26
2022-08-30T03:11:11.285Z,76.31
2022-08-30T03:13:39.763Z,76.41
2022-08-30T03:16:08.156Z,76.57
2022-08-30T03:18:36.535Z,76.51
2022-08-30T03:21:11.642Z,76.40
2022-08-30T03:23:40.872Z,76.47
2022-08-30T03:26:13.245Z,76.59
2022-08-30T03:28:44.534Z,76.59
2022-08-30T03:31:12.798Z,76.73
2022-08-30T03:33:41.020Z,76.71
2022-08-30T03:36:10.293Z,76.80
2022-08-30T03:38:39.069Z,76.85
2022-08-30T03:41:07.637Z,77.04
2022-08-30T03:43:37.575Z,76.93
2022-08-30T03:46:06.315Z,77.09
2022-08-30T03:48:34.561Z,77.05
2022-08-30T03:51:02.769Z,77.14
2022-08-30T03:53:34.421Z,77.10
2022-08-30T03:56:03.999Z,77.26
2022-08-30T03:58:32.240Z,77.30
2022-08-30T04:01:00.508Z,77.31
2022-08-30T04:03:29.485Z,77.45
2022-08-30T04:05:58.090Z,77.41
2022-08-30T04:08:27.244Z,77.57
2022-08-30T04:10:56.254Z,77.57
2022-08-30T04:13:25.228Z,77.84
2022-08-30T04:15:53.456Z,77.74
2022-08-30T04:18:22.629Z,78.05
2022-08-30T04:20:53.040Z,78.10
2022-08-30T04:23:21.645Z,78.20
2022-08-30T04:25:49.895Z,78.09
2022-08-30T04:28:18.053Z,78.44
2022-08-30T04:30:46.922Z,78.50
2022-08-30T04:33:16.669Z,78.55
2022-08-30T04:35:48.845Z,78.65
2022-08-30T04:38:18.514Z,78.68
2022-08-30T04:40:50.661Z,79.02
2022-08-30T04:43:18.921Z,79.10
2022-08-30T04:45:48.165Z,79.31
2022-08-30T04:48:18.641Z,79.22
2022-08-30T04:50:46.865Z,79.36
2022-08-30T04:53:16.016Z,79.68
2022-08-30T04:55:44.604Z,79.82
2022-08-30T04:58:13.863Z,79.96
2022-08-30T05:00:44.763Z,79.73
2022-08-30T05:03:13.141Z,79.67
2022-08-30T05:05:41.843Z,79.62
2022-08-30T05:08:13.544Z,79.67
2022-08-30T05:10:53.292Z,79.61
2022-08-30T05:13:34.977Z,79.45
2022-08-30T05:16:08.076Z,79.40
2022-08-30T05:18:37.490Z,79.34
2022-08-30T05:21:12.724Z,79.39
2022-08-30T05:23:42.381Z,79.15
2022-08-30T05:26:13.619Z,79.04
2022-08-30T05:28:42.016Z,79.01
2022-08-30T05:31:21.334Z,78.95
2022-08-30T05:33:51.856Z,78.87
2022-08-30T05:36:23.751Z,78.93
2022-08-30T05:38:53.455Z,78.85
2022-08-30T05:41:26.484Z,78.73
2022-08-30T05:43:59.334Z,78.54
2022-08-30T05:49:07.847Z,78.03
2022-08-30T05:51:40.216Z,77.95
2022-08-30T05:54:13.948Z,77.65
2022-08-30T05:56:45.371Z,77.31
2022-08-30T05:59:14.621Z,76.93
2022-08-30T06:01:58.836Z,76.68
2022-08-30T06:04:32.067Z,76.45
2022-08-30T06:07:00.320Z,75.77
2022-08-30T06:09:29.202Z,75.06
2022-08-30T06:11:57.784Z,74.56
2022-08-30T06:14:26.165Z,74.18
2022-08-30T06:16:54.415Z,73.91
2022-08-30T06:19:23.391Z,73.48
2022-08-30T06:21:51.911Z,72.53
2022-08-30T06:24:24.880Z,72.34
2022-08-30T06:27:06.070Z,71.97
2022-08-30T06:29:38.645Z,71.31
2022-08-30T06:32:07.932Z,71.06
2022-08-30T06:34:36.183Z,70.88
2022-08-30T06:37:04.484Z,70.93
2022-08-30T06:39:32.664Z,70.37
2022-08-30T06:42:00.939Z,69.86
2022-08-30T06:44:29.384Z,69.51
2022-08-30T06:46:59.071Z,69.76
2022-08-30T06:49:27.444Z,69.79
2022-08-30T06:51:55.648Z,69.59
2022-08-30T06:54:23.823Z,69.54
2022-08-30T06:56:59.267Z,69.22
2022-08-30T06:59:28.179Z,69.16
2022-08-30T07:01:57.528Z,68.71
2022-08-30T07:04:26.559Z,68.14
2022-08-30T07:06:54.742Z,67.99
2022-08-30T07:09:23.426Z,67.54
2022-08-30T07:11:53.535Z,66.55
2022-08-30T07:14:22.496Z,66.07
2022-08-30T07:16:50.959Z,66.20
2022-08-30T07:19:21.462Z,66.37
2022-08-30T07:21:50.589Z,66.04
2022-08-30T07:24:19.869Z,65.92
2022-08-30T07:26:52.072Z,66.20
2022-08-30T07:29:21.429Z,65.62
2022-08-30T07:31:50.111Z,64.85
2022-08-30T07:34:20.605Z,64.65
2022-08-30T07:36:50.716Z,64.49
2022-08-30T07:39:19.655Z,64.18
2022-08-30T07:41:48.956Z,63.94
2022-08-30T07:44:17.896Z,63.45
2022-08-30T07:46:46.193Z,63.35
2022-08-30T07:49:14.388Z,63.20
2022-08-30T07:51:42.837Z,62.99
2022-08-30T07:54:11.208Z,62.89
2022-08-30T07:56:39.985Z,63.36
2022-08-30T07:59:08.192Z,62.50
2022-08-30T08:01:36.490Z,62.24
2022-08-30T08:04:04.693Z,62.44
2022-08-30T08:06:34.885Z,62.83
2022-08-30T08:09:03.956Z,62.82
2022-08-30T08:11:34.476Z,62.80
2022-08-30T08:14:04.946Z,62.67
2022-08-30T08:16:35.517Z,62.49
2022-08-30T08:19:09.360Z,62.45
2022-08-30T08:21:38.006Z,62.56
2022-08-30T08:24:07.441Z,62.70
2022-08-30T08:26:37.107Z,63.28
2022-08-30T08:29:08.021Z,62.90
2022-08-30T08:31:37.635Z,62.73
2022-08-30T08:34:06.483Z,61.94
2022-08-30T08:36:36.629Z,62.20
2022-08-30T08:39:08.402Z,61.96
2022-08-30T08:41:51.682Z,61.84
2022-08-30T08:44:44.567Z,61.32
2022-08-30T08:47:20.704Z,61.68
2022-08-30T08:49:53.014Z,61.62
2022-08-30T08:52:55.518Z,61.65
2022-08-30T08:55:24.743Z,61.20
2022-08-30T08:57:52.958Z,61.01
2022-08-30T09:00:21.308Z,61.27
2022-08-30T09:03:04.454Z,60.94
2022-08-30T09:05:40.144Z,61.10
2022-08-30T09:08:14.680Z,61.06
2022-08-30T09:11:05.497Z,61.31
2022-08-30T09:13:33.979Z,61.69
2022-08-30T09:16:03.099Z,61.30
2022-08-30T09:18:51.270Z,61.16
2022-08-30T09:21:26.580Z,61.24
2022-08-30T09:24:01.711Z,61.22
2022-08-30T09:26:38.012Z,61.69
2022-08-30T09:29:17.849Z,61.74
2022-08-30T09:32:10.148Z,61.77
2022-08-30T09:34:44.247Z,61.87
2022-08-30T09:37:31.111Z,61.92
2022-08-30T09:40:00.218Z,61.88
2022-08-30T09:42:31.105Z,61.83
2022-08-30T09:45:11.793Z,61.61
2022-08-30T09:47:43.749Z,61.87
2022-08-30T09:50:16.514Z,62.11
2022-08-30T09:53:10.560Z,61.64
2022-08-30T09:55:53.831Z,61.22
2022-08-30T09:58:42.914Z,61.23
2022-08-30T10:01:30.750Z,61.05
2022-08-30T10:04:27.159Z,60.48
2022-08-30T10:07:40.674Z,60.61
2022-08-30T10:10:28.297Z,60.46
2022-08-30T10:13:34.115Z,60.32
2022-08-30T10:16:13.852Z,60.23
2022-08-30T10:18:59.898Z,60.20
2022-08-30T10:21:58.357Z,60.15
2022-08-30T10:24:43.965Z,59.64
2022-08-30T10:27:23.261Z,59.81
2022-08-30T10:30:10.460Z,59.53
2022-08-30T10:32:44.737Z,59.36
2022-08-30T10:35:38.661Z,59.33
2022-08-30T10:38:26.879Z,58.21
2022-08-30T10:41:45.696Z,57.56
2022-08-30T10:44:32.083Z,58.28
2022-08-30T10:47:18.517Z,58.14
2022-08-30T10:50:03.770Z,58.12
2022-08-30T10:52:53.086Z,58.30
2022-08-30T10:55:30.527Z,58.14
2022-08-30T10:58:06.617Z,58.16
2022-08-30T11:01:07.660Z,58.09
2022-08-30T11:04:08.292Z,58.35
2022-08-30T11:07:15.790Z,58.31
2022-08-30T11:10:21.545Z,58.24
2022-08-30T11:13:25.883Z,58.42
2022-08-30T11:16:20.300Z,58.52
2022-08-30T11:18:57.971Z,58.69
2022-08-30T11:21:38.520Z,58.72
2022-08-30T11:24:27.221Z,58.72
2022-08-30T11:27:01.949Z,58.65
2022-08-30T11:29:44.335Z,58.64
2022-08-30T11:32:12.382Z,58.88
2022-08-30T11:34:47.199Z,59.06
2022-08-30T11:37:39.635Z,59.00
2022-08-30T11:40:22.843Z,59.32
2022-08-30T11:42:54.177Z,59.21
2022-08-30T11:45:22.227Z,58.87
2022-08-30T11:48:10.222Z,59.07
2022-08-30T11:51:32.027Z,59.04
2022-08-30T11:54:32.644Z,59.44
2022-08-30T11:57:28.175Z,60.00
2022-08-30T12:00:28.650Z,60.70
2022-08-30T12:03:03.798Z,61.84
2022-08-30T12:05:38.632Z,62.65
2022-08-30T12:08:27.927Z,63.30
2022-08-30T12:11:02.339Z,63.94
2022-08-30T12:13:39.090Z,63.29
2022-08-30T12:16:09.511Z,63.31
2022-08-30T12:18:49.182Z,63.67
2022-08-30T12:21:20.224Z,64.50
2022-08-30T12:24:18.873Z,65.34
2022-08-30T12:26:51.385Z,65.62
2022-08-30T12:29:20.815Z,66.07
2022-08-30T12:32:03.379Z,65.79
2022-08-30T12:34:50.768Z,65.88
2022-08-30T12:37:24.852Z,65.79
2022-08-30T12:40:07.235Z,65.80
2022-08-30T12:42:41.321Z,65.60
2022-08-30T12:45:18.648Z,65.40
2022-08-30T12:48:01.776Z,65.30
2022-08-30T12:50:43.583Z,65.06
2022-08-30T12:53:14.383Z,64.67
2022-08-30T12:55:54.379Z,64.66
2022-08-30T12:58:34.490Z,64.88
2022-08-30T13:01:37.127Z,65.05
2022-08-30T13:04:23.356Z,65.52
2022-08-30T13:07:02.432Z,65.73
2022-08-30T13:09:38.263Z,65.88
2022-08-30T13:12:31.518Z,66.10
2022-08-30T13:15:28.073Z,66.30
2022-08-30T13:18:26.778Z,66.77
2022-08-30T13:21:23.048Z,67.13
2022-08-30T13:24:06.288Z,67.29
2022-08-30T13:26:39.936Z,67.32
2022-08-30T13:29:17.967Z,67.23
2022-08-30T13:31:46.732Z,67.57
2022-08-30T13:34:19.281Z,67.95
2022-08-30T13:36:55.979Z,67.81
2022-08-30T13:39:25.133Z,67.98
2022-08-30T13:41:54.795Z,68.09
2022-08-30T13:44:43.047Z,68.10
2022-08-30T13:50:01.399Z,68.44
2022-08-30T13:52:29.675Z,69.04
2022-08-30T13:54:59.383Z,68.78
2022-08-30T14:00:21.913Z,68.80
2022-08-30T14:02:55.154Z,68.93
2022-08-30T14:05:49.240Z,68.85
2022-08-30T14:08:45.617Z,69.22
2022-08-30T14:11:18.938Z,69.17
2022-08-30T14:16:41.392Z,68.92
2022-08-30T14:19:12.339Z,69.14
2022-08-30T14:21:40.837Z,69.75
2022-08-30T14:24:09.365Z,69.63
2022-08-30T14:26:45.786Z,69.36
2022-08-30T14:29:21.919Z,68.95
2022-08-30T14:31:50.320Z,68.70
2022-08-30T14:34:19.027Z,68.74
2022-08-30T14:36:47.315Z,68.54
2022-08-30T14:39:19.989Z,68.23
2022-08-30T14:41:52.508Z,68.13
2022-08-30T14:44:22.580Z,68.00
2022-08-30T14:46:51.015Z,67.70
2022-08-30T14:49:20.092Z,67.32
2022-08-30T14:51:49.088Z,67.33
2022-08-30T14:54:25.333Z,67.37
2022-08-30T14:56:55.436Z,67.28
2022-08-30T14:59:25.597Z,67.19
2022-08-30T15:01:54.059Z,67.25
2022-08-30T15:04:22.835Z,67.10
2022-08-30T15:06:51.858Z,67.15
2022-08-30T15:09:24.525Z,67.22
2022-08-30T15:11:55.261Z,67.43
2022-08-30T15:14:29.219Z,67.07
2022-08-30T15:17:02.618Z,66.95
2022-08-30T15:19:31.943Z,66.77
2022-08-30T15:22:04.431Z,66.73
2022-08-30T15:24:33.433Z,66.80
2022-08-30T15:27:02.716Z,66.87
2022-08-30T15:29:31.857Z,67.02
2022-08-30T15:32:01.964Z,67.09
2022-08-30T15:34:31.676Z,67.13
2022-08-30T15:37:00.330Z,67.27
2022-08-30T15:39:29.232Z,67.20
2022-08-30T15:42:01.256Z,67.13
2022-08-30T15:44:31.632Z,67.04
2022-08-30T15:47:00.058Z,66.94
2022-08-30T15:49:29.095Z,66.96
2022-08-30T15:52:01.762Z,67.18
2022-08-30T15:54:30.559Z,67.09
2022-08-30T15:57:01.592Z,66.89
2022-08-30T15:59:31.751Z,66.95
2022-08-30T16:02:00.765Z,66.68
2022-08-30T16:04:29.862Z,66.74
2022-08-30T16:06:58.108Z,66.90
2022-08-30T16:09:30.115Z,67.06
2022-08-30T16:12:04.642Z,67.04
2022-08-30T16:14:34.407Z,67.15
2022-08-30T16:17:03.568Z,67.10
2022-08-30T16:19:33.195Z,67.35
2022-08-30T16:22:02.052Z,67.51
2022-08-30T16:24:30.280Z,67.78
2022-08-30T16:26:58.543Z,67.73
2022-08-30T16:29:26.921Z,67.84
2022-08-30T16:31:56.673Z,68.05
2022-08-30T16:34:26.009Z,68.12
2022-08-30T16:36:54.209Z,68.21
2022-08-30T16:39:22.765Z,68.27
2022-08-30T16:41:50.947Z,67.96
2022-08-30T16:44:19.347Z,67.65
2022-08-30T16:46:52.801Z,67.32
2022-08-30T16:49:25.581Z,67.17
2022-08-30T16:51:54.629Z,67.19
2022-08-30T16:54:23.687Z,66.97
2022-08-30T16:56:51.921Z,66.83
2022-08-30T16:59:20.127Z,66.93
2022-08-30T17:01:49.412Z,67.09
2022-08-30T17:07:06.722Z,67.12
2022-08-30T17:09:41.768Z,67.53
2022-08-30T17:12:09.955Z,67.62
2022-08-30T17:14:38.510Z,67.60
2022-08-30T17:17:07.240Z,68.06
2022-08-30T17:19:39.965Z,68.19
2022-08-30T17:22:12.147Z,68.55
2022-08-30T17:24:41.498Z,68.92
2022-08-30T17:27:12.003Z,68.87
2022-08-30T17:29:40.193Z,69.08
2022-08-30T17:32:08.419Z,68.81
2022-08-30T17:34:37.286Z,68.88
2022-08-30T17:37:05.489Z,69.07
2022-08-30T17:39:34.510Z,69.29
2022-08-30T17:42:05.270Z,69.42
2022-08-30T17:44:36.420Z,69.57
2022-08-30T17:47:04.881Z,69.91
2022-08-30T17:49:33.625Z,69.99
2022-08-30T17:52:03.179Z,70.27
2022-08-30T17:54:34.560Z,70.78
2022-08-30T17:59:55.423Z,70.51
2022-08-30T18:02:30.036Z,71.10
2022-08-30T18:05:00.251Z,71.21
2022-08-30T18:07:28.509Z,71.12
2022-08-30T18:09:56.936Z,71.31
2022-08-30T18:12:25.178Z,71.49
2022-08-30T18:14:55.227Z,71.75
2022-08-30T18:17:23.472Z,72.05
2022-08-30T18:19:51.856Z,72.02
2022-08-30T18:22:20.020Z,72.07
2022-08-30T18:24:48.459Z,72.17
2022-08-30T18:27:16.824Z,72.22
2022-08-30T18:29:45.165Z,72.20
2022-08-30T18:32:13.538Z,72.24
2022-08-30T18:34:42.989Z,72.31
2022-08-30T18:37:12.779Z,72.22
2022-08-30T18:39:42.660Z,72.06
2022-08-30T18:42:10.924Z,71.79
2022-08-30T18:44:40.248Z,71.67
2022-08-30T18:47:12.032Z,71.69
2022-08-30T18:49:40.210Z,71.39
2022-08-30T18:52:11.123Z,71.44
2022-08-30T18:54:52.370Z,71.38
2022-08-30T18:57:23.442Z,71.12
2022-08-30T18:59:51.660Z,71.29
2022-08-30T19:02:20.729Z,71.05
2022-08-30T19:04:49.273Z,70.93
2022-08-30T19:07:19.522Z,70.93
2022-08-30T19:09:48.253Z,70.71
2022-08-30T19:12:16.600Z,70.90
2022-08-30T19:14:44.983Z,70.66
2022-08-30T19:17:14.815Z,70.78
2022-08-30T19:19:48.607Z,70.89
2022-08-30T19:22:21.756Z,70.79
2022-08-30T19:24:51.448Z,70.70
2022-08-30T19:27:37.773Z,70.46
2022-08-30T19:30:14.276Z,70.36
2022-08-30T19:32:47.198Z,70.37
2022-08-30T19:35:15.811Z,70.52
2022-08-30T19:37:46.344Z,70.61
2022-08-30T19:40:17.817Z,70.76
2022-08-30T19:42:46.691Z,71.10
2022-08-30T19:45:18.504Z,71.63
2022-08-30T19:47:47.839Z,71.84
2022-08-30T19:50:17.841Z,72.06
2022-08-30T19:52:52.759Z,72.28
2022-08-30T19:55:30.147Z,72.22
2022-08-30T19:58:00.164Z,72.42
2022-08-30T20:00:31.226Z,72.76
2022-08-30T20:03:01.236Z,73.18
2022-08-30T20:05:32.007Z,73.29
2022-08-30T20:08:00.334Z,73.33
2022-08-30T20:10:28.686Z,73.59
2022-08-30T20:12:56.985Z,73.76
2022-08-30T20:15:26.445Z,73.87
2022-08-30T20:18:13.483Z,74.05
2022-08-30T20:20:48.062Z,74.09
2022-08-30T20:23:22.705Z,74.19
2022-08-30T20:24:23.330Z,67.22
2022-08-30T20:24:26.862Z,70.84
2022-08-30T20:25:55.593Z,74.38
2022-08-30T20:28:25.354Z,74.60
2022-08-30T20:30:56.014Z,74.79
2022-08-30T20:33:25.849Z,74.92
2022-08-30T20:35:54.113Z,75.07
2022-08-30T20:38:22.539Z,75.38
2022-08-30T20:40:56.560Z,75.51
2022-08-30T20:43:28.912Z,75.55
2022-08-30T20:45:57.210Z,75.79
2022-08-30T20:48:28.603Z,75.96
2022-08-30T20:50:56.833Z,75.80
2022-08-30T20:53:25.043Z,76.03
2022-08-30T20:55:53.212Z,76.17
2022-08-30T20:58:22.452Z,76.32
2022-08-30T21:00:54.833Z,76.18
2022-08-30T21:03:27.578Z,76.26
2022-08-30T21:05:56.993Z,76.60
2022-08-30T21:08:25.725Z,76.74
2022-08-30T21:10:55.421Z,76.86
2022-08-30T21:13:23.850Z,76.96
2022-08-30T21:15:55.040Z,76.91
2022-08-30T21:18:32.812Z,76.75
2022-08-30T21:21:15.090Z,76.91
2022-08-30T21:23:43.292Z,76.85
2022-08-30T21:26:11.477Z,76.82
2022-08-30T21:28:40.446Z,76.80
2022-08-30T21:31:15.358Z,76.72
2022-08-30T21:33:44.173Z,76.70
2022-08-30T21:36:30.823Z,76.67
2022-08-30T21:39:00.683Z,76.56
2022-08-30T21:41:31.522Z,76.58
2022-08-30T21:44:03.814Z,76.44
2022-08-30T21:46:34.274Z,76.40
2022-08-30T21:49:06.444Z,76.40
2022-08-30T21:51:41.193Z,76.51
2022-08-30T21:54:11.104Z,76.47
2022-08-30T21:56:42.441Z,76.51
2022-08-30T21:59:12.223Z,76.36
2022-08-30T22:01:43.416Z,76.29
2022-08-30T22:04:13.275Z,76.34
2022-08-30T22:06:48.248Z,76.44
2022-08-30T22:09:21.109Z,76.37
2022-08-30T22:11:51.084Z,76.25
2022-08-30T22:14:22.049Z,76.17
2022-08-30T22:16:50.822Z,76.22
2022-08-30T22:19:23.154Z,76.23
2022-08-30T22:21:53.880Z,76.09
2022-08-30T22:24:32.638Z,76.09
2022-08-30T22:27:03.315Z,76.08
2022-08-30T22:29:31.856Z,76.07
2022-08-30T22:32:00.494Z,76.07
2022-08-30T22:34:28.878Z,76.20
2022-08-30T22:36:57.124Z,76.24
2022-08-30T22:39:26.337Z,76.17
2022-08-30T22:41:54.650Z,76.22
2022-08-30T22:44:22.828Z,76.14
2022-08-30T22:46:51.642Z,76.18
2022-08-30T22:49:20.615Z,76.14
2022-08-30T22:51:48.792Z,76.18
2022-08-30T22:54:17.625Z,76.14
2022-08-30T22:56:46.375Z,76.09
2022-08-30T22:59:15.197Z,76.14
2022-08-30T23:01:43.754Z,76.28
2022-08-30T23:04:12.862Z,76.16
2022-08-30T23:06:41.748Z,76.08
2022-08-30T23:09:19.036Z,76.23
2022-08-30T23:11:47.381Z,76.19
2022-08-30T23:14:15.678Z,76.21
2022-08-30T23:16:43.904Z,76.22
2022-08-30T23:19:12.572Z,76.11
2022-08-30T23:21:40.761Z,76.15
2022-08-30T23:24:27.748Z,76.13
2022-08-30T23:27:14.588Z,76.13
2022-08-30T23:30:01.468Z,76.40
2022-08-30T23:32:48.247Z,76.42
2022-08-30T23:35:34.995Z,76.59
2022-08-30T23:38:24.012Z,76.65
2022-08-30T23:41:10.520Z,76.79
2022-08-30T23:43:57.318Z,76.82
2022-08-30T23:46:44.137Z,76.78
2022-08-30T23:49:30.924Z,76.92
2022-08-30T23:52:17.692Z,77.17
2022-08-30T23:55:04.596Z,77.31
2022-08-30T23:57:51.286Z,77.25
